sensor_id;sensor_type;location;lat;lon;timestamp;temperature;humidity
7494;DHT22;3788;49.902;8.590;2023-03-01T00:00:40;0.60;88.70
7494;DHT22;3788;49.902;8.590;2023-03-01T00:03:11;0.60;88.80
7494;DHT22;3788;49.902;8.590;2023-03-01T00:05:44;0.60;88.90
7494;DHT22;3788;49.902;8.590;2023-03-01T00:08:10;0.60;89.00
7494;DHT22;3788;49.902;8.590;2023-03-01T00:10:37;0.60;89.10
7494;DHT22;3788;49.902;8.590;2023-03-01T00:13:04;0.60;89.10
7494;DHT22;3788;49.902;8.590;2023-03-01T00:15:31;0.60;89.10
7494;DHT22;3788;49.902;8.590;2023-03-01T00:18:00;0.60;89.40
7494;DHT22;3788;49.902;8.590;2023-03-01T00:20:27;0.60;89.50
7494;DHT22;3788;49.902;8.590;2023-03-01T00:22:54;0.60;89.50
7494;DHT22;3788;49.902;8.590;2023-03-01T00:25:20;0.60;89.60
7494;DHT22;3788;49.902;8.590;2023-03-01T00:27:47;0.60;89.80
7494;DHT22;3788;49.902;8.590;2023-03-01T00:30:15;0.50;90.00
7494;DHT22;3788;49.902;8.590;2023-03-01T00:32:42;0.50;90.10
7494;DHT22;3788;49.902;8.590;2023-03-01T00:35:10;0.50;90.20
7494;DHT22;3788;49.902;8.590;2023-03-01T00:37:37;0.50;90.30
7494;DHT22;3788;49.902;8.590;2023-03-01T00:40:04;0.50;90.30
7494;DHT22;3788;49.902;8.590;2023-03-01T00:42:32;0.50;90.30
7494;DHT22;3788;49.902;8.590;2023-03-01T00:44:59;0.50;90.30
7494;DHT22;3788;49.902;8.590;2023-03-01T00:47:25;0.50;90.30
7494;DHT22;3788;49.902;8.590;2023-03-01T00:49:54;0.40;90.30
7494;DHT22;3788;49.902;8.590;2023-03-01T00:52:22;0.40;90.40
7494;DHT22;3788;49.902;8.590;2023-03-01T00:54:52;0.40;90.50
7494;DHT22;3788;49.902;8.590;2023-03-01T00:57:19;0.40;90.50
7494;DHT22;3788;49.902;8.590;2023-03-01T00:59:45;0.40;90.50
7494;DHT22;3788;49.902;8.590;2023-03-01T01:02:12;0.40;90.50
7494;DHT22;3788;49.902;8.590;2023-03-01T01:04:39;0.40;90.60
7494;DHT22;3788;49.902;8.590;2023-03-01T01:07:05;0.40;90.60
7494;DHT22;3788;49.902;8.590;2023-03-01T01:09:33;0.40;90.60
7494;DHT22;3788;49.902;8.590;2023-03-01T01:12:01;0.40;90.70
7494;DHT22;3788;49.902;8.590;2023-03-01T01:14:28;0.40;90.60
7494;DHT22;3788;49.902;8.590;2023-03-01T01:16:54;0.40;90.60
7494;DHT22;3788;49.902;8.590;2023-03-01T01:19:22;0.40;90.60
7494;DHT22;3788;49.902;8.590;2023-03-01T01:21:49;0.40;90.60
7494;DHT22;3788;49.902;8.590;2023-03-01T01:24:16;0.40;90.70
7494;DHT22;3788;49.902;8.590;2023-03-01T01:26:45;0.40;90.70
7494;DHT22;3788;49.902;8.590;2023-03-01T01:29:12;0.40;90.70
7494;DHT22;3788;49.902;8.590;2023-03-01T01:31:41;0.30;90.70
7494;DHT22;3788;49.902;8.590;2023-03-01T01:34:13;0.30;90.80
7494;DHT22;3788;49.902;8.590;2023-03-01T01:36:40;0.30;90.80
7494;DHT22;3788;49.902;8.590;2023-03-01T01:39:07;0.30;90.90
7494;DHT22;3788;49.902;8.590;2023-03-01T01:41:40;0.30;91.00
7494;DHT22;3788;49.902;8.590;2023-03-01T01:44:15;0.30;91.00
7494;DHT22;3788;49.902;8.590;2023-03-01T01:46:45;0.30;91.00
7494;DHT22;3788;49.902;8.590;2023-03-01T01:49:19;0.30;91.10
7494;DHT22;3788;49.902;8.590;2023-03-01T01:51:51;0.30;91.10
7494;DHT22;3788;49.902;8.590;2023-03-01T01:54:22;0.30;91.10
7494;DHT22;3788;49.902;8.590;2023-03-01T01:56:54;0.30;91.30
7494;DHT22;3788;49.902;8.590;2023-03-01T01:59:24;0.30;91.40
7494;DHT22;3788;49.902;8.590;2023-03-01T02:01:51;0.30;91.40
7494;DHT22;3788;49.902;8.590;2023-03-01T02:04:18;0.30;91.40
7494;DHT22;3788;49.902;8.590;2023-03-01T02:06:49;0.30;91.40
7494;DHT22;3788;49.902;8.590;2023-03-01T02:09:19;0.30;91.50
7494;DHT22;3788;49.902;8.590;2023-03-01T02:11:47;0.30;91.60
7494;DHT22;3788;49.902;8.590;2023-03-01T02:14:15;0.20;91.70
7494;DHT22;3788;49.902;8.590;2023-03-01T02:16:43;0.20;91.70
7494;DHT22;3788;49.902;8.590;2023-03-01T02:19:13;0.20;91.80
7494;DHT22;3788;49.902;8.590;2023-03-01T02:21:46;0.20;91.90
7494;DHT22;3788;49.902;8.590;2023-03-01T02:24:25;0.20;92.00
7494;DHT22;3788;49.902;8.590;2023-03-01T02:26:57;0.20;92.20
7494;DHT22;3788;49.902;8.590;2023-03-01T02:29:27;0.20;92.20
7494;DHT22;3788;49.902;8.590;2023-03-01T02:31:56;0.20;92.20
7494;DHT22;3788;49.902;8.590;2023-03-01T02:34:24;0.30;92.20
7494;DHT22;3788;49.902;8.590;2023-03-01T02:36:55;0.30;92.20
7494;DHT22;3788;49.902;8.590;2023-03-01T02:39:26;0.30;92.20
7494;DHT22;3788;49.902;8.590;2023-03-01T02:41:54;0.30;92.20
7494;DHT22;3788;49.902;8.590;2023-03-01T02:44:24;0.30;92.20
7494;DHT22;3788;49.902;8.590;2023-03-01T02:46:52;0.30;92.20
7494;DHT22;3788;49.902;8.590;2023-03-01T02:49:22;0.30;92.20
7494;DHT22;3788;49.902;8.590;2023-03-01T02:52:00;0.30;92.30
7494;DHT22;3788;49.902;8.590;2023-03-01T02:54:31;0.30;92.30
7494;DHT22;3788;49.902;8.590;2023-03-01T02:57:00;0.30;92.30
7494;DHT22;3788;49.902;8.590;2023-03-01T02:59:32;0.30;92.40
7494;DHT22;3788;49.902;8.590;2023-03-01T03:02:04;0.30;92.40
7494;DHT22;3788;49.902;8.590;2023-03-01T03:04:31;0.30;92.40
7494;DHT22;3788;49.902;8.590;2023-03-01T03:06:58;0.30;92.70
7494;DHT22;3788;49.902;8.590;2023-03-01T03:09:24;0.30;92.40
7494;DHT22;3788;49.902;8.590;2023-03-01T03:11:51;0.30;92.50
7494;DHT22;3788;49.902;8.590;2023-03-01T03:14:18;0.30;92.50
7494;DHT22;3788;49.902;8.590;2023-03-01T03:16:47;0.30;92.60
7494;DHT22;3788;49.902;8.590;2023-03-01T03:19:15;0.30;92.70
7494;DHT22;3788;49.902;8.590;2023-03-01T03:21:42;0.30;92.70
7494;DHT22;3788;49.902;8.590;2023-03-01T03:24:09;0.20;92.70
7494;DHT22;3788;49.902;8.590;2023-03-01T03:26:35;0.30;92.70
7494;DHT22;3788;49.902;8.590;2023-03-01T03:29:02;0.20;92.80
7494;DHT22;3788;49.902;8.590;2023-03-01T03:31:29;0.20;92.80
7494;DHT22;3788;49.902;8.590;2023-03-01T03:33:57;0.20;92.80
7494;DHT22;3788;49.902;8.590;2023-03-01T03:36:26;0.20;92.80
7494;DHT22;3788;49.902;8.590;2023-03-01T03:38:52;0.20;92.80
7494;DHT22;3788;49.902;8.590;2023-03-01T03:41:19;0.20;92.80
7494;DHT22;3788;49.902;8.590;2023-03-01T03:43:46;0.20;92.80
7494;DHT22;3788;49.902;8.590;2023-03-01T03:46:14;0.30;92.90
7494;DHT22;3788;49.902;8.590;2023-03-01T03:48:43;0.30;92.90
7494;DHT22;3788;49.902;8.590;2023-03-01T03:51:12;0.30;92.90
7494;DHT22;3788;49.902;8.590;2023-03-01T03:53:40;0.30;93.00
7494;DHT22;3788;49.902;8.590;2023-03-01T03:56:07;0.30;92.90
7494;DHT22;3788;49.902;8.590;2023-03-01T03:58:34;0.30;93.10
7494;DHT22;3788;49.902;8.590;2023-03-01T04:01:01;0.30;93.10
7494;DHT22;3788;49.902;8.590;2023-03-01T04:03:29;0.30;93.20
7494;DHT22;3788;49.902;8.590;2023-03-01T04:05:57;0.30;93.10
7494;DHT22;3788;49.902;8.590;2023-03-01T04:08:26;0.30;93.20
7494;DHT22;3788;49.902;8.590;2023-03-01T04:10:57;0.20;93.20
7494;DHT22;3788;49.902;8.590;2023-03-01T04:13:25;0.30;93.30
7494;DHT22;3788;49.902;8.590;2023-03-01T04:15:52;0.30;93.40
7494;DHT22;3788;49.902;8.590;2023-03-01T04:18:21;0.20;93.60
7494;DHT22;3788;49.902;8.590;2023-03-01T04:20:48;0.30;93.30
7494;DHT22;3788;49.902;8.590;2023-03-01T04:23:18;0.30;93.40
7494;DHT22;3788;49.902;8.590;2023-03-01T04:25:48;0.30;93.40
7494;DHT22;3788;49.902;8.590;2023-03-01T04:28:19;0.30;93.30
7494;DHT22;3788;49.902;8.590;2023-03-01T04:30:46;0.30;93.30
7494;DHT22;3788;49.902;8.590;2023-03-01T04:33:13;0.40;93.30
7494;DHT22;3788;49.902;8.590;2023-03-01T04:35:40;0.40;93.20
7494;DHT22;3788;49.902;8.590;2023-03-01T04:38:07;0.40;93.20
7494;DHT22;3788;49.902;8.590;2023-03-01T04:40:34;0.40;93.20
7494;DHT22;3788;49.902;8.590;2023-03-01T04:43:03;0.30;93.20
7494;DHT22;3788;49.902;8.590;2023-03-01T04:45:31;0.30;93.20
7494;DHT22;3788;49.902;8.590;2023-03-01T04:47:57;0.30;93.20
7494;DHT22;3788;49.902;8.590;2023-03-01T04:50:24;0.30;93.20
7494;DHT22;3788;49.902;8.590;2023-03-01T04:52:52;0.30;93.20
7494;DHT22;3788;49.902;8.590;2023-03-01T04:55:19;0.30;93.10
7494;DHT22;3788;49.902;8.590;2023-03-01T04:57:45;0.30;93.10
7494;DHT22;3788;49.902;8.590;2023-03-01T05:00:14;0.30;93.10
7494;DHT22;3788;49.902;8.590;2023-03-01T05:02:48;0.30;93.00
7494;DHT22;3788;49.902;8.590;2023-03-01T05:05:19;0.30;93.30
7494;DHT22;3788;49.902;8.590;2023-03-01T05:07:46;0.30;92.90
7494;DHT22;3788;49.902;8.590;2023-03-01T05:10:13;0.30;92.90
7494;DHT22;3788;49.902;8.590;2023-03-01T05:12:39;0.40;92.90
7494;DHT22;3788;49.902;8.590;2023-03-01T05:15:07;0.40;92.90
7494;DHT22;3788;49.902;8.590;2023-03-01T05:17:35;0.40;92.90
7494;DHT22;3788;49.902;8.590;2023-03-01T05:20:02;0.40;92.90
7494;DHT22;3788;49.902;8.590;2023-03-01T05:22:32;0.40;92.80
7494;DHT22;3788;49.902;8.590;2023-03-01T05:25:02;0.40;92.80
7494;DHT22;3788;49.902;8.590;2023-03-01T05:27:29;0.40;92.80
7494;DHT22;3788;49.902;8.590;2023-03-01T05:29:56;0.40;92.80
7494;DHT22;3788;49.902;8.590;2023-03-01T05:32:23;0.40;92.70
7494;DHT22;3788;49.902;8.590;2023-03-01T05:34:51;0.50;92.70
7494;DHT22;3788;49.902;8.590;2023-03-01T05:37:20;0.50;92.60
7494;DHT22;3788;49.902;8.590;2023-03-01T05:39:46;0.50;92.60
7494;DHT22;3788;49.902;8.590;2023-03-01T05:42:15;0.50;92.50
7494;DHT22;3788;49.902;8.590;2023-03-01T05:44:42;0.50;92.50
7494;DHT22;3788;49.902;8.590;2023-03-01T05:47:09;0.50;92.50
7494;DHT22;3788;49.902;8.590;2023-03-01T05:49:35;0.40;92.50
7494;DHT22;3788;49.902;8.590;2023-03-01T05:52:04;0.40;92.50
7494;DHT22;3788;49.902;8.590;2023-03-01T05:54:30;0.40;92.50
7494;DHT22;3788;49.902;8.590;2023-03-01T05:56:58;0.40;92.50
7494;DHT22;3788;49.902;8.590;2023-03-01T05:59:25;0.40;92.50
7494;DHT22;3788;49.902;8.590;2023-03-01T06:01:51;0.40;92.60
7494;DHT22;3788;49.902;8.590;2023-03-01T06:04:18;0.40;92.50
7494;DHT22;3788;49.902;8.590;2023-03-01T06:06:46;0.40;92.50
7494;DHT22;3788;49.902;8.590;2023-03-01T06:09:14;0.50;92.50
7494;DHT22;3788;49.902;8.590;2023-03-01T06:11:41;0.50;92.50
7494;DHT22;3788;49.902;8.590;2023-03-01T06:14:07;0.40;92.50
7494;DHT22;3788;49.902;8.590;2023-03-01T06:16:35;0.50;92.50
7494;DHT22;3788;49.902;8.590;2023-03-01T06:19:04;0.50;92.50
7494;DHT22;3788;49.902;8.590;2023-03-01T06:21:30;0.50;92.60
7494;DHT22;3788;49.902;8.590;2023-03-01T06:23:57;0.50;92.50
7494;DHT22;3788;49.902;8.590;2023-03-01T06:26:25;0.50;92.50
7494;DHT22;3788;49.902;8.590;2023-03-01T06:28:52;0.50;92.50
7494;DHT22;3788;49.902;8.590;2023-03-01T06:31:19;0.50;92.50
7494;DHT22;3788;49.902;8.590;2023-03-01T06:33:45;0.60;92.50
7494;DHT22;3788;49.902;8.590;2023-03-01T06:36:12;0.60;92.50
7494;DHT22;3788;49.902;8.590;2023-03-01T06:38:39;0.60;92.40
7494;DHT22;3788;49.902;8.590;2023-03-01T06:41:07;0.60;92.40
7494;DHT22;3788;49.902;8.590;2023-03-01T06:43:35;0.70;92.40
7494;DHT22;3788;49.902;8.590;2023-03-01T06:46:04;0.70;92.40
7494;DHT22;3788;49.902;8.590;2023-03-01T06:48:32;0.70;92.30
7494;DHT22;3788;49.902;8.590;2023-03-01T06:51:00;0.70;92.30
7494;DHT22;3788;49.902;8.590;2023-03-01T06:53:26;0.80;92.60
7494;DHT22;3788;49.902;8.590;2023-03-01T06:55:54;0.80;92.40
7494;DHT22;3788;49.902;8.590;2023-03-01T06:58:21;0.80;92.40
7494;DHT22;3788;49.902;8.590;2023-03-01T07:00:49;0.90;92.30
7494;DHT22;3788;49.902;8.590;2023-03-01T07:03:16;1.00;92.20
7494;DHT22;3788;49.902;8.590;2023-03-01T07:05:43;1.00;92.10
7494;DHT22;3788;49.902;8.590;2023-03-01T07:08:10;1.10;92.00
7494;DHT22;3788;49.902;8.590;2023-03-01T07:10:37;1.10;91.70
7494;DHT22;3788;49.902;8.590;2023-03-01T07:13:04;1.20;91.60
7494;DHT22;3788;49.902;8.590;2023-03-01T07:15:32;1.40;91.70
7494;DHT22;3788;49.902;8.590;2023-03-01T07:18:00;1.80;91.50
7494;DHT22;3788;49.902;8.590;2023-03-01T07:20:27;2.20;90.90
7494;DHT22;3788;49.902;8.590;2023-03-01T07:22:55;2.60;90.20
7494;DHT22;3788;49.902;8.590;2023-03-01T07:25:23;2.90;88.80
7494;DHT22;3788;49.902;8.590;2023-03-01T07:27:50;3.20;87.90
7494;DHT22;3788;49.902;8.590;2023-03-01T07:30:18;3.40;86.40
7494;DHT22;3788;49.902;8.590;2023-03-01T07:32:44;3.50;85.90
7494;DHT22;3788;49.902;8.590;2023-03-01T07:35:13;3.40;83.70
7494;DHT22;3788;49.902;8.590;2023-03-01T07:37:40;3.20;83.70
7494;DHT22;3788;49.902;8.590;2023-03-01T07:40:08;3.10;83.60
7494;DHT22;3788;49.902;8.590;2023-03-01T07:42:35;3.10;83.80
7494;DHT22;3788;49.902;8.590;2023-03-01T07:45:03;3.00;83.80
7494;DHT22;3788;49.902;8.590;2023-03-01T07:47:30;3.20;84.20
7494;DHT22;3788;49.902;8.590;2023-03-01T07:49:57;3.50;84.10
7494;DHT22;3788;49.902;8.590;2023-03-01T07:52:25;3.60;83.00
7494;DHT22;3788;49.902;8.590;2023-03-01T07:54:51;3.80;82.70
7494;DHT22;3788;49.902;8.590;2023-03-01T07:57:18;3.90;81.60
7494;DHT22;3788;49.902;8.590;2023-03-01T07:59:45;3.90;81.80
7494;DHT22;3788;49.902;8.590;2023-03-01T08:02:12;4.00;81.90
7494;DHT22;3788;49.902;8.590;2023-03-01T08:04:40;4.00;81.40
7494;DHT22;3788;49.902;8.590;2023-03-01T08:07:07;4.10;81.30
7494;DHT22;3788;49.902;8.590;2023-03-01T08:09:35;4.10;80.70
7494;DHT22;3788;49.902;8.590;2023-03-01T08:12:03;4.10;80.50
7494;DHT22;3788;49.902;8.590;2023-03-01T08:14:30;4.30;80.90
7494;DHT22;3788;49.902;8.590;2023-03-01T08:16:56;4.50;79.50
7494;DHT22;3788;49.902;8.590;2023-03-01T08:19:23;4.60;78.60
7494;DHT22;3788;49.902;8.590;2023-03-01T08:21:50;4.70;78.00
7494;DHT22;3788;49.902;8.590;2023-03-01T08:24:17;5.00;77.50
7494;DHT22;3788;49.902;8.590;2023-03-01T08:26:45;5.30;75.90
7494;DHT22;3788;49.902;8.590;2023-03-01T08:29:11;5.70;74.50
7494;DHT22;3788;49.902;8.590;2023-03-01T08:31:40;6.10;74.10
7494;DHT22;3788;49.902;8.590;2023-03-01T08:34:09;6.40;72.60
7494;DHT22;3788;49.902;8.590;2023-03-01T08:36:39;6.70;72.10
7494;DHT22;3788;49.902;8.590;2023-03-01T08:39:07;7.00;70.50
7494;DHT22;3788;49.902;8.590;2023-03-01T08:41:34;7.10;70.20
7494;DHT22;3788;49.902;8.590;2023-03-01T08:44:02;7.30;69.20
7494;DHT22;3788;49.902;8.590;2023-03-01T08:46:31;7.50;68.40
7494;DHT22;3788;49.902;8.590;2023-03-01T08:48:58;7.70;67.90
7494;DHT22;3788;49.902;8.590;2023-03-01T08:51:26;7.90;66.20
7494;DHT22;3788;49.902;8.590;2023-03-01T08:53:53;7.90;64.80
7494;DHT22;3788;49.902;8.590;2023-03-01T08:56:19;7.70;64.20
7494;DHT22;3788;49.902;8.590;2023-03-01T08:58:48;7.70;65.40
7494;DHT22;3788;49.902;8.590;2023-03-01T09:01:17;7.90;64.70
7494;DHT22;3788;49.902;8.590;2023-03-01T09:03:44;8.00;64.00
7494;DHT22;3788;49.902;8.590;2023-03-01T09:06:12;8.00;63.60
7494;DHT22;3788;49.902;8.590;2023-03-01T09:08:40;8.10;64.00
7494;DHT22;3788;49.902;8.590;2023-03-01T09:11:10;8.40;64.00
7494;DHT22;3788;49.902;8.590;2023-03-01T09:13:37;8.40;62.80
7494;DHT22;3788;49.902;8.590;2023-03-01T09:16:06;8.20;62.80
7494;DHT22;3788;49.902;8.590;2023-03-01T09:18:35;8.20;63.00
7494;DHT22;3788;49.902;8.590;2023-03-01T09:21:02;8.30;62.90
7494;DHT22;3788;49.902;8.590;2023-03-01T09:23:32;8.30;62.20
7494;DHT22;3788;49.902;8.590;2023-03-01T09:25:59;8.40;62.80
7494;DHT22;3788;49.902;8.590;2023-03-01T09:28:26;8.20;61.30
7494;DHT22;3788;49.902;8.590;2023-03-01T09:30:52;8.10;61.40
7494;DHT22;3788;49.902;8.590;2023-03-01T09:33:19;8.10;61.40
7494;DHT22;3788;49.902;8.590;2023-03-01T09:35:47;8.10;61.90
7494;DHT22;3788;49.902;8.590;2023-03-01T09:38:14;8.40;62.40
7494;DHT22;3788;49.902;8.590;2023-03-01T09:40:43;8.60;61.90
7494;DHT22;3788;49.902;8.590;2023-03-01T09:43:18;8.80;61.00
7494;DHT22;3788;49.902;8.590;2023-03-01T09:45:49;8.60;60.60
7494;DHT22;3788;49.902;8.590;2023-03-01T09:48:19;8.40;60.50
7494;DHT22;3788;49.902;8.590;2023-03-01T09:50:49;8.30;60.80
7494;DHT22;3788;49.902;8.590;2023-03-01T09:53:18;8.40;60.90
7494;DHT22;3788;49.902;8.590;2023-03-01T09:55:50;8.40;60.90
7494;DHT22;3788;49.902;8.590;2023-03-01T09:58:34;8.40;61.00
7494;DHT22;3788;49.902;8.590;2023-03-01T10:01:09;8.60;61.20
7494;DHT22;3788;49.902;8.590;2023-03-01T10:03:41;8.60;61.10
7494;DHT22;3788;49.902;8.590;2023-03-01T10:06:15;8.60;60.60
7494;DHT22;3788;49.902;8.590;2023-03-01T10:08:52;8.60;60.40
7494;DHT22;3788;49.902;8.590;2023-03-01T10:11:24;8.50;60.30
7494;DHT22;3788;49.902;8.590;2023-03-01T10:13:57;8.40;60.80
7494;DHT22;3788;49.902;8.590;2023-03-01T10:16:28;8.40;61.10
7494;DHT22;3788;49.902;8.590;2023-03-01T10:19:02;8.50;61.30
7494;DHT22;3788;49.902;8.590;2023-03-01T10:21:34;8.60;61.00
7494;DHT22;3788;49.902;8.590;2023-03-01T10:24:10;8.60;61.30
7494;DHT22;3788;49.902;8.590;2023-03-01T10:26:46;8.60;60.50
7494;DHT22;3788;49.902;8.590;2023-03-01T10:29:14;8.60;60.80
7494;DHT22;3788;49.902;8.590;2023-03-01T10:31:43;8.70;61.20
7494;DHT22;3788;49.902;8.590;2023-03-01T10:34:13;8.70;60.70
7494;DHT22;3788;49.902;8.590;2023-03-01T10:36:42;8.50;60.20
7494;DHT22;3788;49.902;8.590;2023-03-01T10:39:15;8.50;60.80
7494;DHT22;3788;49.902;8.590;2023-03-01T10:41:57;8.30;60.80
7494;DHT22;3788;49.902;8.590;2023-03-01T10:44:43;8.30;61.30
7494;DHT22;3788;49.902;8.590;2023-03-01T10:47:16;8.30;61.80
7494;DHT22;3788;49.902;8.590;2023-03-01T10:49:54;8.30;61.70
7494;DHT22;3788;49.902;8.590;2023-03-01T10:52:25;8.30;61.80
7494;DHT22;3788;49.902;8.590;2023-03-01T10:54:54;8.30;61.80
7494;DHT22;3788;49.902;8.590;2023-03-01T10:57:29;8.30;61.90
7494;DHT22;3788;49.902;8.590;2023-03-01T11:00:10;8.30;61.90
7494;DHT22;3788;49.902;8.590;2023-03-01T11:02:50;8.30;62.10
7494;DHT22;3788;49.902;8.590;2023-03-01T11:05:21;8.30;62.00
7494;DHT22;3788;49.902;8.590;2023-03-01T11:07:52;8.30;62.30
7494;DHT22;3788;49.902;8.590;2023-03-01T11:10:24;8.30;62.40
7494;DHT22;3788;49.902;8.590;2023-03-01T11:12:52;8.30;62.10
7494;DHT22;3788;49.902;8.590;2023-03-01T11:15:21;8.40;62.20
7494;DHT22;3788;49.902;8.590;2023-03-01T11:17:49;8.40;61.60
7494;DHT22;3788;49.902;8.590;2023-03-01T11:20:23;8.40;61.90
7494;DHT22;3788;49.902;8.590;2023-03-01T11:22:54;8.50;61.10
7494;DHT22;3788;49.902;8.590;2023-03-01T11:25:24;8.40;60.70
7494;DHT22;3788;49.902;8.590;2023-03-01T11:27:53;8.50;60.90
7494;DHT22;3788;49.902;8.590;2023-03-01T11:30:23;8.50;61.30
7494;DHT22;3788;49.902;8.590;2023-03-01T11:32:58;8.50;61.20
7494;DHT22;3788;49.902;8.590;2023-03-01T11:35:28;8.50;61.40
7494;DHT22;3788;49.902;8.590;2023-03-01T11:38:05;8.60;61.50
7494;DHT22;3788;49.902;8.590;2023-03-01T11:40:40;8.60;61.00
7494;DHT22;3788;49.902;8.590;2023-03-01T11:43:15;8.50;60.60
7494;DHT22;3788;49.902;8.590;2023-03-01T11:45:55;8.50;60.50
7494;DHT22;3788;49.902;8.590;2023-03-01T11:48:41;8.50;60.70
7494;DHT22;3788;49.902;8.590;2023-03-01T11:51:16;8.50;60.90
7494;DHT22;3788;49.902;8.590;2023-03-01T11:53:59;8.50;60.60
7494;DHT22;3788;49.902;8.590;2023-03-01T11:56:31;8.50;60.60
7494;DHT22;3788;49.902;8.590;2023-03-01T11:59:23;8.50;59.50
7494;DHT22;3788;49.902;8.590;2023-03-01T12:02:12;8.50;59.00
7494;DHT22;3788;49.902;8.590;2023-03-01T12:05:07;8.50;59.10
7494;DHT22;3788;49.902;8.590;2023-03-01T12:07:46;8.40;58.50
7494;DHT22;3788;49.902;8.590;2023-03-01T12:10:22;8.40;58.50
7494;DHT22;3788;49.902;8.590;2023-03-01T12:13:03;8.50;58.10
7494;DHT22;3788;49.902;8.590;2023-03-01T12:15:58;8.60;58.70
7494;DHT22;3788;49.902;8.590;2023-03-01T12:18:40;8.60;56.80
7494;DHT22;3788;49.902;8.590;2023-03-01T12:21:18;8.60;57.10
7494;DHT22;3788;49.902;8.590;2023-03-01T12:26:47;8.70;56.80
7494;DHT22;3788;49.902;8.590;2023-03-01T12:29:25;8.70;56.50
7494;DHT22;3788;49.902;8.590;2023-03-01T12:32:15;8.70;56.00
7494;DHT22;3788;49.902;8.590;2023-03-01T12:34:55;8.60;56.00
7494;DHT22;3788;49.902;8.590;2023-03-01T12:37:36;8.60;56.00
7494;DHT22;3788;49.902;8.590;2023-03-01T12:40:20;8.70;56.90
7494;DHT22;3788;49.902;8.590;2023-03-01T12:42:58;8.70;55.60
7494;DHT22;3788;49.902;8.590;2023-03-01T12:45:44;8.60;55.10
7494;DHT22;3788;49.902;8.590;2023-03-01T12:48:24;8.60;55.30
7494;DHT22;3788;49.902;8.590;2023-03-01T12:50:53;8.60;54.90
7494;DHT22;3788;49.902;8.590;2023-03-01T12:53:24;8.70;55.00
7494;DHT22;3788;49.902;8.590;2023-03-01T12:55:53;8.60;54.60
7494;DHT22;3788;49.902;8.590;2023-03-01T12:58:29;8.60;54.80
7494;DHT22;3788;49.902;8.590;2023-03-01T13:01:07;8.70;54.80
7494;DHT22;3788;49.902;8.590;2023-03-01T13:03:49;8.70;54.20
7494;DHT22;3788;49.902;8.590;2023-03-01T13:06:21;8.70;54.30
7494;DHT22;3788;49.902;8.590;2023-03-01T13:08:50;8.80;54.90
7494;DHT22;3788;49.902;8.590;2023-03-01T13:11:22;8.80;55.20
7494;DHT22;3788;49.902;8.590;2023-03-01T13:13:50;8.90;55.30
7494;DHT22;3788;49.902;8.590;2023-03-01T13:19:07;8.90;55.10
7494;DHT22;3788;49.902;8.590;2023-03-01T13:21:34;8.80;55.20
7494;DHT22;3788;49.902;8.590;2023-03-01T13:24:01;8.80;55.20
7494;DHT22;3788;49.902;8.590;2023-03-01T13:26:28;8.80;55.40
7494;DHT22;3788;49.902;8.590;2023-03-01T13:28:57;8.80;55.50
7494;DHT22;3788;49.902;8.590;2023-03-01T13:31:59;8.80;55.50
7494;DHT22;3788;49.902;8.590;2023-03-01T13:34:40;8.80;55.10
7494;DHT22;3788;49.902;8.590;2023-03-01T13:37:09;8.70;55.20
7494;DHT22;3788;49.902;8.590;2023-03-01T13:39:39;8.70;55.40
7494;DHT22;3788;49.902;8.590;2023-03-01T13:42:38;8.70;54.90
7494;DHT22;3788;49.902;8.590;2023-03-01T13:45:17;8.70;55.20
7494;DHT22;3788;49.902;8.590;2023-03-01T13:47:46;8.80;54.80
7494;DHT22;3788;49.902;8.590;2023-03-01T13:50:20;8.80;54.60
7494;DHT22;3788;49.902;8.590;2023-03-01T13:52:52;8.80;54.80
7494;DHT22;3788;49.902;8.590;2023-03-01T13:55:22;8.80;54.30
7494;DHT22;3788;49.902;8.590;2023-03-01T13:57:52;8.90;54.20
7494;DHT22;3788;49.902;8.590;2023-03-01T14:00:38;8.90;54.30
7494;DHT22;3788;49.902;8.590;2023-03-01T14:03:10;8.90;54.60
7494;DHT22;3788;49.902;8.590;2023-03-01T14:05:37;9.00;54.60
7494;DHT22;3788;49.902;8.590;2023-03-01T14:08:17;8.90;54.20
7494;DHT22;3788;49.902;8.590;2023-03-01T14:10:54;9.00;54.60
7494;DHT22;3788;49.902;8.590;2023-03-01T14:13:38;9.10;54.30
7494;DHT22;3788;49.902;8.590;2023-03-01T14:16:19;9.10;54.10
7494;DHT22;3788;49.902;8.590;2023-03-01T14:18:55;9.10;54.20
7494;DHT22;3788;49.902;8.590;2023-03-01T14:21:24;9.10;54.00
7494;DHT22;3788;49.902;8.590;2023-03-01T14:23:52;9.10;54.10
7494;DHT22;3788;49.902;8.590;2023-03-01T14:26:21;9.10;53.50
7494;DHT22;3788;49.902;8.590;2023-03-01T14:28:48;9.10;53.50
7494;DHT22;3788;49.902;8.590;2023-03-01T14:31:41;9.10;53.60
7494;DHT22;3788;49.902;8.590;2023-03-01T14:34:19;9.00;53.40
7494;DHT22;3788;49.902;8.590;2023-03-01T14:36:46;9.00;53.60
7494;DHT22;3788;49.902;8.590;2023-03-01T14:39:17;9.00;53.60
7494;DHT22;3788;49.902;8.590;2023-03-01T14:41:44;9.00;53.80
7494;DHT22;3788;49.902;8.590;2023-03-01T14:44:16;9.10;54.30
7494;DHT22;3788;49.902;8.590;2023-03-01T14:46:45;9.10;54.30
7494;DHT22;3788;49.902;8.590;2023-03-01T14:49:15;9.20;54.40
7494;DHT22;3788;49.902;8.590;2023-03-01T14:51:49;9.30;54.20
7494;DHT22;3788;49.902;8.590;2023-03-01T14:54:23;9.30;54.10
7494;DHT22;3788;49.902;8.590;2023-03-01T14:56:51;9.20;54.00
7494;DHT22;3788;49.902;8.590;2023-03-01T14:59:21;9.20;54.00
7494;DHT22;3788;49.902;8.590;2023-03-01T15:01:50;9.20;54.10
7494;DHT22;3788;49.902;8.590;2023-03-01T15:04:18;9.10;53.80
7494;DHT22;3788;49.902;8.590;2023-03-01T15:06:46;9.10;54.10
7494;DHT22;3788;49.902;8.590;2023-03-01T15:09:15;9.00;54.10
7494;DHT22;3788;49.902;8.590;2023-03-01T15:11:43;9.00;53.70
7494;DHT22;3788;49.902;8.590;2023-03-01T15:14:27;9.00;54.10
7494;DHT22;3788;49.902;8.590;2023-03-01T15:16:56;9.00;54.40
7494;DHT22;3788;49.902;8.590;2023-03-01T15:19:24;9.00;54.90
7494;DHT22;3788;49.902;8.590;2023-03-01T15:21:54;9.00;54.80
7494;DHT22;3788;49.902;8.590;2023-03-01T15:24:24;9.00;54.80
7494;DHT22;3788;49.902;8.590;2023-03-01T15:26:52;9.00;54.80
7494;DHT22;3788;49.902;8.590;2023-03-01T15:29:22;9.00;54.20
7494;DHT22;3788;49.902;8.590;2023-03-01T15:31:58;8.90;54.40
7494;DHT22;3788;49.902;8.590;2023-03-01T15:34:27;8.90;54.70
7494;DHT22;3788;49.902;8.590;2023-03-01T15:36:55;8.90;54.80
7494;DHT22;3788;49.902;8.590;2023-03-01T15:39:39;8.90;54.80
7494;DHT22;3788;49.902;8.590;2023-03-01T15:42:10;8.90;54.90
7494;DHT22;3788;49.902;8.590;2023-03-01T15:44:39;8.90;54.80
7494;DHT22;3788;49.902;8.590;2023-03-01T15:47:23;8.90;55.00
7494;DHT22;3788;49.902;8.590;2023-03-01T15:49:53;8.80;55.10
7494;DHT22;3788;49.902;8.590;2023-03-01T15:52:23;8.80;55.30
7494;DHT22;3788;49.902;8.590;2023-03-01T15:54:55;8.80;55.30
7494;DHT22;3788;49.902;8.590;2023-03-01T15:57:22;8.80;55.50
7494;DHT22;3788;49.902;8.590;2023-03-01T15:59:48;8.80;55.40
7494;DHT22;3788;49.902;8.590;2023-03-01T16:02:17;8.80;55.60
7494;DHT22;3788;49.902;8.590;2023-03-01T16:04:46;8.80;55.80
7494;DHT22;3788;49.902;8.590;2023-03-01T16:07:14;8.70;55.70
7494;DHT22;3788;49.902;8.590;2023-03-01T16:09:40;8.70;55.80
7494;DHT22;3788;49.902;8.590;2023-03-01T16:12:11;8.60;55.80
7494;DHT22;3788;49.902;8.590;2023-03-01T16:14:39;8.60;55.80
7494;DHT22;3788;49.902;8.590;2023-03-01T16:17:06;8.50;55.90
7494;DHT22;3788;49.902;8.590;2023-03-01T16:19:36;8.50;56.10
7494;DHT22;3788;49.902;8.590;2023-03-01T16:22:03;8.50;56.40
7494;DHT22;3788;49.902;8.590;2023-03-01T16:24:30;8.40;56.50
7494;DHT22;3788;49.902;8.590;2023-03-01T16:26:57;8.30;56.70
7494;DHT22;3788;49.902;8.590;2023-03-01T16:29:23;8.30;56.90
7494;DHT22;3788;49.902;8.590;2023-03-01T16:31:50;8.20;57.10
7494;DHT22;3788;49.902;8.590;2023-03-01T16:34:17;8.20;57.30
7494;DHT22;3788;49.902;8.590;2023-03-01T16:36:48;8.10;57.30
7494;DHT22;3788;49.902;8.590;2023-03-01T16:39:15;8.10;57.40
7494;DHT22;3788;49.902;8.590;2023-03-01T16:41:42;8.10;57.60